Tyrone, Colorado
Current Conditions -  °F | °C
As of 5:54 AM on Sunday 21 Dec 2014 (Local Time) from KTAD Reporting Station
Clear Clear  
Wind Chill: 22°   Ceiling: Unl
Heat Index: 29°   Visibility: 10mi
Dew Point: 17°   Wind: 7mph
Humidity: 61%   Direction: 260°W
Pressure: 29.83"   Gusts: NA
Location:  37.5307°N, 104.063°W
Report Text: KTAD 211254Z AUTO 26006KT 10SM CLR M02/M08 A2983 RMK AO2 SLP104 T10171083
Loading
Personal Weather Stations






























Interactive Weather Map New forecast layout! Learn more

10-Day Weather Forecast

Advertisements
Track Severe Weather on mobile